createdAt,value
2023-08-02T00:00:57.195Z,94.58
2023-08-02T00:03:39.233Z,95.22
2023-08-02T00:05:51.496Z,95.10
2023-08-02T00:08:01.239Z,94.93
2023-08-02T00:10:21.681Z,94.89
2023-08-02T00:12:33.095Z,94.99
2023-08-02T00:14:45.342Z,95.41
2023-08-02T00:16:59.970Z,95.25
2023-08-02T00:19:26.835Z,95.36
2023-08-02T00:21:36.087Z,95.00
2023-08-02T00:23:57.305Z,95.66
2023-08-02T00:26:07.974Z,96.05
2023-08-02T00:28:39.650Z,95.90
2023-08-02T00:30:53.681Z,96.00
2023-08-02T00:33:32.694Z,96.09
2023-08-02T00:35:55.610Z,96.21
2023-08-02T00:38:13.171Z,96.36
2023-08-02T00:40:42.597Z,96.28
2023-08-02T00:43:12.310Z,96.41
2023-08-02T00:45:35.366Z,96.48
2023-08-02T00:48:00.874Z,96.68
2023-08-02T00:50:17.253Z,96.53
2023-08-02T00:52:36.428Z,96.65
2023-08-02T00:54:46.812Z,96.69
2023-08-02T00:56:59.483Z,96.94
2023-08-02T00:59:18.537Z,97.04
2023-08-02T01:01:39.566Z,97.16
2023-08-02T01:04:27.068Z,96.56
2023-08-02T01:06:50.855Z,96.41
2023-08-02T01:09:18.441Z,96.70
2023-08-02T01:11:39.414Z,96.79
2023-08-02T01:14:03.738Z,96.87
2023-08-02T01:16:37.634Z,96.97
2023-08-02T01:19:13.347Z,96.96
2023-08-02T01:21:20.853Z,97.64
2023-08-02T01:23:25.950Z,97.88
2023-08-02T01:25:35.989Z,98.13
2023-08-02T01:27:55.771Z,98.16
2023-08-02T01:30:03.998Z,98.24
2023-08-02T01:32:10.853Z,97.96
2023-08-02T01:34:16.396Z,97.99
2023-08-02T01:36:24.496Z,98.21
2023-08-02T01:38:29.767Z,98.38
2023-08-02T01:40:34.762Z,98.81
2023-08-02T01:42:40.332Z,98.40
2023-08-02T01:44:45.450Z,98.52
2023-08-02T01:46:50.305Z,98.72
2023-08-02T01:48:55.161Z,98.75
2023-08-02T01:51:00.242Z,98.39
2023-08-02T01:53:13.159Z,99.01
2023-08-02T01:55:18.183Z,99.21
2023-08-02T01:57:23.119Z,99.02
2023-08-02T01:59:28.015Z,99.22
2023-08-02T02:01:32.890Z,99.11
2023-08-02T02:03:38.035Z,99.28
2023-08-02T02:05:54.443Z,99.42
2023-08-02T02:08:01.575Z,99.44
2023-08-02T02:10:10.713Z,99.49
2023-08-02T02:12:15.569Z,99.89
2023-08-02T02:14:20.414Z,99.73
2023-08-02T02:16:22.781Z,100.00
2023-08-02T02:18:30.029Z,100.00
2023-08-02T02:20:34.856Z,100.00
2023-08-02T02:22:41.009Z,100.00
2023-08-02T02:24:45.877Z,99.85
2023-08-02T02:26:53.224Z,100.00
2023-08-02T02:28:58.141Z,100.00
2023-08-02T02:31:04.245Z,100.00
2023-08-02T02:33:09.218Z,100.00
2023-08-02T02:35:15.362Z,100.00
2023-08-02T02:37:20.162Z,100.00
2023-08-02T02:39:24.959Z,100.00
2023-08-02T02:41:30.056Z,100.00
2023-08-02T02:43:40.223Z,100.00
2023-08-02T02:45:44.989Z,100.00
2023-08-02T02:47:50.008Z,100.00
2023-08-02T02:49:56.742Z,100.00
2023-08-02T02:52:07.818Z,100.00
2023-08-02T02:54:12.782Z,100.00
2023-08-02T02:56:17.702Z,100.00
2023-08-02T02:58:22.576Z,100.00
2023-08-02T03:00:32.449Z,100.00
2023-08-02T03:02:37.736Z,100.00
2023-08-02T03:04:42.949Z,100.00
2023-08-02T03:06:48.054Z,100.00
2023-08-02T03:08:52.933Z,100.00
2023-08-02T03:10:57.845Z,100.00
2023-08-02T03:13:02.702Z,100.00
2023-08-02T03:15:08.949Z,100.00
2023-08-02T03:17:16.328Z,100.00
2023-08-02T03:19:21.163Z,100.00
2023-08-02T03:21:31.928Z,100.00
2023-08-02T03:23:38.325Z,100.00
2023-08-02T03:25:43.637Z,100.00
2023-08-02T03:27:48.388Z,100.00
2023-08-02T03:29:53.692Z,100.00
2023-08-02T03:32:01.644Z,100.00
2023-08-02T03:34:09.104Z,100.00
2023-08-02T03:36:13.930Z,100.00
2023-08-02T03:38:18.879Z,100.00
2023-08-02T03:40:24.913Z,100.00
2023-08-02T03:42:29.943Z,100.00
2023-08-02T03:44:35.057Z,100.00
2023-08-02T03:46:40.272Z,100.00
2023-08-02T03:48:48.502Z,100.00
2023-08-02T03:50:57.371Z,100.00
2023-08-02T03:53:02.667Z,100.00
2023-08-02T03:55:10.582Z,100.00
2023-08-02T03:57:15.511Z,100.00
2023-08-02T03:59:20.468Z,100.00
2023-08-02T04:01:25.716Z,100.00
2023-08-02T04:03:28.270Z,100.00
2023-08-02T04:05:36.502Z,100.00
2023-08-02T04:07:48.070Z,100.00
2023-08-02T04:09:58.416Z,100.00
2023-08-02T04:12:03.541Z,100.00
2023-08-02T04:14:08.382Z,100.00
2023-08-02T04:16:16.172Z,100.00
2023-08-02T04:18:21.113Z,100.00
2023-08-02T04:20:25.931Z,100.00
2023-08-02T04:22:33.082Z,100.00
2023-08-02T04:24:40.582Z,100.00
2023-08-02T04:26:45.846Z,100.00
2023-08-02T04:28:51.464Z,100.00
2023-08-02T04:30:54.351Z,100.00
2023-08-02T04:32:59.484Z,100.00
2023-08-02T04:35:05.102Z,100.00
2023-08-02T04:37:12.718Z,100.00
2023-08-02T04:39:17.570Z,100.00
2023-08-02T04:41:25.093Z,100.00
2023-08-02T04:43:30.143Z,100.00
2023-08-02T04:45:35.812Z,100.00
2023-08-02T04:47:43.169Z,100.00
2023-08-02T04:49:48.233Z,100.00
2023-08-02T04:51:53.073Z,100.00
2023-08-02T04:53:58.029Z,100.00
2023-08-02T04:56:02.958Z,100.00
2023-08-02T04:58:07.937Z,100.00
2023-08-02T05:00:13.633Z,100.00
2023-08-02T05:02:19.472Z,100.00
2023-08-02T05:04:24.704Z,100.00
2023-08-02T05:06:33.929Z,100.00
2023-08-02T05:08:40.819Z,100.00
2023-08-02T05:10:45.794Z,100.00
2023-08-02T05:12:50.578Z,100.00
2023-08-02T05:15:01.257Z,100.00
2023-08-02T05:17:09.173Z,100.00
2023-08-02T05:19:14.051Z,100.00
2023-08-02T05:21:23.173Z,100.00
2023-08-02T05:23:29.074Z,100.00
2023-08-02T05:25:37.066Z,100.00
2023-08-02T05:27:42.186Z,100.00
2023-08-02T05:29:47.228Z,100.00
2023-08-02T05:31:54.734Z,100.00
2023-08-02T05:33:59.623Z,100.00
2023-08-02T05:36:05.067Z,100.00
2023-08-02T05:38:12.750Z,100.00
2023-08-02T05:40:20.654Z,100.00
2023-08-02T05:42:25.963Z,100.00
2023-08-02T05:44:30.791Z,100.00
2023-08-02T05:46:36.001Z,100.00
2023-08-02T05:48:45.758Z,100.00
2023-08-02T05:50:50.788Z,100.00
2023-08-02T05:52:55.977Z,100.00
2023-08-02T05:55:00.807Z,100.00
2023-08-02T05:57:05.761Z,100.00
2023-08-02T05:59:10.683Z,100.00
2023-08-02T06:01:15.942Z,100.00
2023-08-02T06:03:20.906Z,100.00
2023-08-02T06:05:31.780Z,100.00
2023-08-02T06:07:36.965Z,100.00
2023-08-02T06:09:43.093Z,100.00
2023-08-02T06:11:47.834Z,100.00
2023-08-02T06:13:52.742Z,100.00
2023-08-02T06:15:57.821Z,100.00
2023-08-02T06:18:02.911Z,100.00
2023-08-02T06:20:11.458Z,100.00
2023-08-02T06:22:18.873Z,100.00
2023-08-02T06:24:29.344Z,100.00
2023-08-02T06:26:34.615Z,100.00
2023-08-02T06:28:39.435Z,100.00
2023-08-02T06:30:44.438Z,100.00
2023-08-02T06:32:49.428Z,100.00
2023-08-02T06:34:54.463Z,100.00
2023-08-02T06:37:04.912Z,100.00
2023-08-02T06:39:15.455Z,100.00
2023-08-02T06:41:20.294Z,100.00
2023-08-02T06:43:25.219Z,100.00
2023-08-02T06:45:30.109Z,100.00
2023-08-02T06:47:35.382Z,100.00
2023-08-02T06:49:40.371Z,100.00
2023-08-02T06:51:42.822Z,100.00
2023-08-02T06:53:47.867Z,100.00
2023-08-02T06:55:55.236Z,100.00
2023-08-02T06:58:00.200Z,100.00
2023-08-02T07:00:08.767Z,100.00
2023-08-02T07:02:16.260Z,100.00
2023-08-02T07:04:21.276Z,100.00
2023-08-02T07:06:26.554Z,100.00
2023-08-02T07:08:32.170Z,100.00
2023-08-02T07:10:37.114Z,100.00
2023-08-02T07:12:41.988Z,100.00
2023-08-02T07:14:47.199Z,100.00
2023-08-02T07:16:52.047Z,100.00
2023-08-02T07:18:56.970Z,100.00
2023-08-02T07:21:07.787Z,100.00
2023-08-02T07:23:13.237Z,100.00
2023-08-02T07:25:18.173Z,100.00
2023-08-02T07:27:24.839Z,100.00
2023-08-02T07:29:35.146Z,100.00
2023-08-02T07:31:40.588Z,100.00
2023-08-02T07:33:46.821Z,100.00
2023-08-02T07:35:51.625Z,100.00
2023-08-02T07:37:56.412Z,100.00
2023-08-02T07:40:01.946Z,100.00
2023-08-02T07:42:07.141Z,100.00
2023-08-02T07:44:11.957Z,100.00
2023-08-02T07:46:23.865Z,100.00
2023-08-02T07:48:29.326Z,100.00
2023-08-02T07:50:38.034Z,100.00
2023-08-02T07:52:44.369Z,100.00
2023-08-02T07:54:55.421Z,100.00
2023-08-02T07:57:01.413Z,100.00
2023-08-02T07:59:06.257Z,100.00
2023-08-02T08:01:12.102Z,100.00
2023-08-02T08:03:19.771Z,100.00
2023-08-02T08:05:26.772Z,100.00
2023-08-02T08:07:32.405Z,100.00
2023-08-02T08:09:37.314Z,100.00
2023-08-02T08:11:42.601Z,100.00
2023-08-02T08:13:47.742Z,100.00
2023-08-02T08:15:52.508Z,100.00
2023-08-02T08:17:57.454Z,100.00
2023-08-02T08:20:08.228Z,100.00
2023-08-02T08:22:13.218Z,100.00
2023-08-02T08:24:18.034Z,100.00
2023-08-02T08:26:24.139Z,100.00
2023-08-02T08:28:29.634Z,100.00
2023-08-02T08:30:35.017Z,100.00
2023-08-02T08:32:40.017Z,100.00
2023-08-02T08:34:44.816Z,100.00
2023-08-02T08:36:52.314Z,100.00
2023-08-02T08:38:59.064Z,100.00
2023-08-02T08:41:03.935Z,100.00
2023-08-02T08:43:09.238Z,100.00
2023-08-02T08:45:14.967Z,100.00
2023-08-02T08:47:21.054Z,100.00
2023-08-02T08:49:25.922Z,100.00
2023-08-02T08:51:32.791Z,100.00
2023-08-02T08:53:44.841Z,100.00
2023-08-02T08:55:53.314Z,100.00
2023-08-02T08:58:00.827Z,100.00
2023-08-02T09:00:12.249Z,100.00
2023-08-02T09:02:18.218Z,100.00
2023-08-02T09:04:23.656Z,100.00
2023-08-02T09:06:30.375Z,100.00
2023-08-02T09:08:46.590Z,100.00
2023-08-02T09:10:48.836Z,100.00
2023-08-02T09:12:53.682Z,100.00
2023-08-02T09:15:06.480Z,100.00
2023-08-02T09:17:11.286Z,100.00
2023-08-02T09:19:26.570Z,100.00
2023-08-02T09:21:31.903Z,100.00
2023-08-02T09:23:34.713Z,100.00
2023-08-02T09:25:42.119Z,100.00
2023-08-02T09:27:50.614Z,100.00
2023-08-02T09:29:56.699Z,100.00
2023-08-02T09:32:01.949Z,100.00
2023-08-02T09:34:09.492Z,99.24
2023-08-02T09:36:14.438Z,99.16
2023-08-02T09:38:19.700Z,97.59
2023-08-02T09:40:49.411Z,98.61
2023-08-02T09:43:05.459Z,98.52
2023-08-02T09:45:12.112Z,98.79
2023-08-02T09:47:16.957Z,99.21
2023-08-02T09:49:23.824Z,100.00
2023-08-02T09:51:42.894Z,100.00
2023-08-02T09:53:57.418Z,99.29
2023-08-02T09:56:06.501Z,100.00
2023-08-02T09:58:17.230Z,98.78
2023-08-02T10:00:22.210Z,99.27
2023-08-02T10:02:28.704Z,98.71
2023-08-02T10:04:35.065Z,98.10
2023-08-02T10:06:45.626Z,97.39
2023-08-02T10:08:52.596Z,97.07
2023-08-02T10:10:59.428Z,97.34
2023-08-02T10:13:12.531Z,96.52
2023-08-02T10:15:21.065Z,96.28
2023-08-02T10:17:28.306Z,96.56
2023-08-02T10:19:34.730Z,91.99
2023-08-02T10:21:41.862Z,86.63
2023-08-02T10:23:49.217Z,87.62
2023-08-02T10:26:00.166Z,85.41
2023-08-02T10:28:06.761Z,85.17
2023-08-02T10:30:14.291Z,83.82
2023-08-02T10:32:23.359Z,84.69
2023-08-02T10:34:50.360Z,83.20
2023-08-02T10:36:56.691Z,82.37
2023-08-02T10:39:04.512Z,83.24
2023-08-02T10:41:12.783Z,80.67
2023-08-02T10:43:17.551Z,78.50
2023-08-02T10:45:22.627Z,77.56
2023-08-02T10:47:28.559Z,75.10
2023-08-02T10:49:42.830Z,75.46
2023-08-02T10:51:47.772Z,72.89
2023-08-02T10:54:13.774Z,71.51
2023-08-02T10:56:18.955Z,71.64
2023-08-02T10:58:21.256Z,71.10
2023-08-02T11:00:33.153Z,70.32
2023-08-02T11:02:52.172Z,70.82
2023-08-02T11:04:57.102Z,72.62
2023-08-02T11:07:14.645Z,71.64
2023-08-02T11:09:19.421Z,71.37
2023-08-02T11:11:34.696Z,71.10
2023-08-02T11:13:43.439Z,70.38
2023-08-02T11:15:49.546Z,70.25
2023-08-02T11:18:00.918Z,71.10
2023-08-02T11:20:07.403Z,68.29
2023-08-02T11:22:12.462Z,67.89
2023-08-02T11:24:17.370Z,67.52
2023-08-02T11:26:20.371Z,66.01
2023-08-02T11:28:25.857Z,66.00
2023-08-02T11:30:31.020Z,64.99
2023-08-02T11:32:38.199Z,65.56
2023-08-02T11:34:46.091Z,66.01
2023-08-02T11:36:52.925Z,66.61
2023-08-02T11:38:59.677Z,64.85
2023-08-02T11:41:04.932Z,65.74
2023-08-02T11:43:11.327Z,65.92
2023-08-02T11:47:26.801Z,63.08
2023-08-02T11:49:34.637Z,62.72
2023-08-02T11:51:46.118Z,64.42
2023-08-02T11:53:56.260Z,63.60
2023-08-02T11:56:02.102Z,63.79
2023-08-02T11:58:10.677Z,64.11
2023-08-02T12:00:17.102Z,63.93
2023-08-02T12:02:24.172Z,60.19
2023-08-02T12:04:29.390Z,60.68
2023-08-02T12:06:53.365Z,61.57
2023-08-02T12:09:03.453Z,62.16
2023-08-02T12:11:16.727Z,58.66
2023-08-02T12:13:22.123Z,58.33
2023-08-02T12:15:26.996Z,57.69
2023-08-02T12:17:34.016Z,55.52
2023-08-02T12:19:44.709Z,54.72
2023-08-02T12:22:01.681Z,55.85
2023-08-02T12:24:16.468Z,56.10
2023-08-02T12:26:36.047Z,56.95
2023-08-02T12:28:49.026Z,57.86
2023-08-02T12:31:05.050Z,57.44
2023-08-02T12:33:10.502Z,57.24
2023-08-02T12:35:16.087Z,57.80
2023-08-02T12:37:24.070Z,56.68
2023-08-02T12:39:29.095Z,56.82
2023-08-02T12:41:34.156Z,56.95
2023-08-02T12:43:39.237Z,57.07
2023-08-02T12:45:44.085Z,57.24
2023-08-02T12:47:49.229Z,56.97
2023-08-02T12:49:55.202Z,57.39
2023-08-02T12:52:00.343Z,56.65
2023-08-02T12:54:08.084Z,57.98
2023-08-02T12:56:13.952Z,57.89
2023-08-02T12:58:19.058Z,58.99
2023-08-02T13:00:23.916Z,58.51
2023-08-02T13:02:31.066Z,56.81
2023-08-02T13:04:36.520Z,58.35
2023-08-02T13:06:51.058Z,56.99
2023-08-02T13:09:01.174Z,57.41
2023-08-02T13:11:10.662Z,57.52
2023-08-02T13:13:15.495Z,54.24
2023-08-02T13:15:20.269Z,54.32
2023-08-02T13:17:25.254Z,55.01
2023-08-02T13:19:30.036Z,52.96
2023-08-02T13:21:34.945Z,53.91
2023-08-02T13:23:40.181Z,50.58
2023-08-02T13:25:45.047Z,49.29
2023-08-02T13:27:52.961Z,48.63
2023-08-02T13:29:55.871Z,49.96
2023-08-02T13:32:02.657Z,49.41
2023-08-02T13:34:16.876Z,49.77
2023-08-02T13:36:21.703Z,50.16
2023-08-02T13:38:26.829Z,50.66
2023-08-02T13:40:34.467Z,50.24
2023-08-02T13:42:37.031Z,51.60
2023-08-02T13:44:48.998Z,51.59
2023-08-02T13:46:54.779Z,51.11
2023-08-02T13:49:00.185Z,52.51
2023-08-02T13:51:05.212Z,51.74
2023-08-02T13:53:13.652Z,52.15
2023-08-02T13:55:18.489Z,52.37
2023-08-02T13:57:21.038Z,53.33
2023-08-02T13:59:25.866Z,55.00
2023-08-02T14:01:33.869Z,56.07
2023-08-02T14:03:43.070Z,56.32
2023-08-02T14:05:54.725Z,56.95
2023-08-02T14:08:24.354Z,57.37
2023-08-02T14:10:55.621Z,59.02
2023-08-02T14:13:12.616Z,59.51
2023-08-02T14:15:26.576Z,59.38
2023-08-02T14:17:36.553Z,59.35
2023-08-02T14:19:42.431Z,59.96
2023-08-02T14:21:53.343Z,60.11
2023-08-02T14:24:19.612Z,59.63
2023-08-02T14:26:33.059Z,60.21
2023-08-02T14:31:14.038Z,60.95
2023-08-02T14:35:33.060Z,60.43
2023-08-02T14:37:59.740Z,60.48
2023-08-02T14:42:59.402Z,62.35
2023-08-02T14:45:16.915Z,62.95
2023-08-02T14:47:28.429Z,62.80
2023-08-02T14:49:40.269Z,63.84
2023-08-02T14:51:45.655Z,65.12
2023-08-02T14:54:03.842Z,64.55
2023-08-02T14:56:20.160Z,64.07
2023-08-02T14:58:34.531Z,64.98
2023-08-02T15:00:42.056Z,64.73
2023-08-02T15:03:04.710Z,64.52
2023-08-02T15:05:20.974Z,64.53
2023-08-02T15:07:32.791Z,65.61
2023-08-02T15:09:37.754Z,64.38
2023-08-02T15:11:42.862Z,64.85
2023-08-02T15:13:47.880Z,65.38
2023-08-02T15:15:53.050Z,64.80
2023-08-02T15:17:58.087Z,65.83
2023-08-02T15:20:03.623Z,65.46
2023-08-02T15:22:15.585Z,65.66
2023-08-02T15:24:20.459Z,65.13
2023-08-02T15:26:27.412Z,66.63
2023-08-02T15:28:35.152Z,66.01
2023-08-02T15:30:40.573Z,65.90
2023-08-02T15:32:45.513Z,65.48
2023-08-02T15:34:50.273Z,64.34
2023-08-02T15:36:56.156Z,63.98
2023-08-02T15:39:04.766Z,63.72
2023-08-02T15:41:07.010Z,64.67
2023-08-02T15:43:12.188Z,63.60
2023-08-02T15:45:17.035Z,64.34
2023-08-02T15:47:22.392Z,64.13
2023-08-02T15:49:27.183Z,64.07
2023-08-02T15:51:33.134Z,63.40
2023-08-02T15:53:38.082Z,63.93
2023-08-02T15:55:45.880Z,63.45
2023-08-02T15:57:51.210Z,62.83
2023-08-02T15:59:56.025Z,63.00
2023-08-02T16:02:01.112Z,63.35
2023-08-02T16:04:07.174Z,63.73
2023-08-02T16:06:12.871Z,64.15
2023-08-02T16:08:18.449Z,64.56
2023-08-02T16:10:23.249Z,65.01
2023-08-02T16:12:31.135Z,65.49
2023-08-02T16:14:36.082Z,65.49
2023-08-02T16:16:41.251Z,65.77
2023-08-02T16:18:46.567Z,67.10
2023-08-02T16:20:52.217Z,67.78
2023-08-02T16:22:57.112Z,69.29
2023-08-02T16:25:05.660Z,68.86
2023-08-02T16:27:10.627Z,67.95
2023-08-02T16:29:19.300Z,67.39
2023-08-02T16:31:24.252Z,68.26
2023-08-02T16:33:29.354Z,67.03
2023-08-02T16:35:34.616Z,66.83
2023-08-02T16:37:39.604Z,66.97
2023-08-02T16:39:44.421Z,66.99
2023-08-02T16:41:49.361Z,67.50
2023-08-02T16:43:54.204Z,68.12
2023-08-02T16:46:01.804Z,70.31
2023-08-02T16:48:05.430Z,72.68
2023-08-02T16:50:12.258Z,76.32
2023-08-02T16:52:21.533Z,77.13
2023-08-02T16:54:31.014Z,80.77
2023-08-02T16:56:35.937Z,82.81
2023-08-02T16:58:40.903Z,85.01
2023-08-02T17:00:45.866Z,87.00
2023-08-02T17:02:53.701Z,85.98
2023-08-02T17:04:59.680Z,85.52
2023-08-02T17:07:03.564Z,86.79
2023-08-02T17:09:08.673Z,85.87
2023-08-02T17:11:11.271Z,87.77
2023-08-02T17:13:16.101Z,86.75
2023-08-02T17:15:21.523Z,87.35
2023-08-02T17:17:26.873Z,86.78
2023-08-02T17:19:34.268Z,87.15
2023-08-02T17:21:52.101Z,87.70
2023-08-02T17:23:56.925Z,87.96
2023-08-02T17:26:08.833Z,86.74
2023-08-02T17:28:11.085Z,88.08
2023-08-02T17:30:16.374Z,87.73
2023-08-02T17:32:21.213Z,85.14
2023-08-02T17:34:28.607Z,85.07
2023-08-02T17:36:37.078Z,87.58
2023-08-02T17:38:41.751Z,86.11
2023-08-02T17:40:46.910Z,86.59
2023-08-02T17:42:51.815Z,86.09
2023-08-02T17:44:57.358Z,86.87
2023-08-02T17:47:05.339Z,88.02
2023-08-02T17:49:11.337Z,90.38
2023-08-02T17:51:18.300Z,91.17
2023-08-02T17:53:26.220Z,91.41
2023-08-02T17:55:31.010Z,92.90
2023-08-02T17:57:35.970Z,94.33
2023-08-02T17:59:40.970Z,93.08
2023-08-02T18:01:47.719Z,94.32
2023-08-02T18:03:56.413Z,96.02
2023-08-02T18:06:01.304Z,97.58
2023-08-02T18:08:06.421Z,97.73
2023-08-02T18:10:14.252Z,100.00
2023-08-02T18:12:19.136Z,100.00
2023-08-02T18:14:23.882Z,100.00
2023-08-02T18:16:29.299Z,100.00
2023-08-02T18:18:34.791Z,100.00
2023-08-02T18:20:40.802Z,100.00
2023-08-02T18:22:45.652Z,100.00
2023-08-02T18:24:52.600Z,100.00
2023-08-02T18:27:00.346Z,100.00
2023-08-02T18:29:05.355Z,100.00
2023-08-02T18:31:10.402Z,100.00
2023-08-02T18:33:16.620Z,100.00
2023-08-02T18:35:18.889Z,100.00
2023-08-02T18:37:26.011Z,100.00
2023-08-02T18:39:32.505Z,100.00
2023-08-02T18:41:38.341Z,100.00
2023-08-02T18:43:46.064Z,100.00
2023-08-02T18:45:53.679Z,100.00
2023-08-02T18:47:58.779Z,100.00
2023-08-02T18:50:01.698Z,100.00
2023-08-02T18:52:08.080Z,100.00
2023-08-02T18:54:14.323Z,100.00
2023-08-02T18:56:16.807Z,100.00
2023-08-02T18:58:22.191Z,100.00
2023-08-02T19:00:36.379Z,100.00
2023-08-02T19:02:38.960Z,100.00
2023-08-02T19:04:44.185Z,100.00
2023-08-02T19:06:49.014Z,100.00
2023-08-02T19:08:53.906Z,100.00
2023-08-02T19:10:59.615Z,100.00
2023-08-02T19:13:06.474Z,100.00
2023-08-02T19:15:29.640Z,100.00
2023-08-02T19:17:43.823Z,100.00
2023-08-02T19:19:48.837Z,100.00
2023-08-02T19:21:51.942Z,100.00
2023-08-02T19:23:56.845Z,100.00
2023-08-02T19:26:01.886Z,100.00
2023-08-02T19:28:07.013Z,100.00
2023-08-02T19:30:20.945Z,100.00
2023-08-02T19:32:38.498Z,100.00
2023-08-02T19:34:52.803Z,100.00
2023-08-02T19:37:01.528Z,100.00
2023-08-02T19:39:21.899Z,100.00
2023-08-02T19:42:23.248Z,100.00
2023-08-02T19:45:13.081Z,100.00
2023-08-02T19:47:34.002Z,100.00
2023-08-02T19:49:52.002Z,100.00
2023-08-02T19:52:43.653Z,100.00
2023-08-02T19:55:56.068Z,100.00
2023-08-02T19:59:08.590Z,100.00
2023-08-02T20:01:14.496Z,100.00
2023-08-02T20:03:19.310Z,100.00
2023-08-02T20:06:05.131Z,100.00
2023-08-02T20:08:16.566Z,100.00
2023-08-02T20:10:52.137Z,100.00
2023-08-02T20:12:57.012Z,100.00
2023-08-02T20:15:07.410Z,100.00
2023-08-02T20:17:14.075Z,100.00
2023-08-02T20:19:24.878Z,100.00
2023-08-02T20:21:29.866Z,100.00
2023-08-02T20:23:42.632Z,100.00
2023-08-02T20:25:56.703Z,100.00
2023-08-02T20:28:01.474Z,100.00
2023-08-02T20:30:16.424Z,100.00
2023-08-02T20:32:21.444Z,100.00
2023-08-02T20:34:27.207Z,100.00
2023-08-02T20:36:32.253Z,100.00
2023-08-02T20:38:37.719Z,100.00
2023-08-02T20:40:42.642Z,100.00
2023-08-02T20:42:47.472Z,100.00
2023-08-02T20:44:52.480Z,100.00
2023-08-02T20:46:57.911Z,100.00
2023-08-02T20:49:06.183Z,100.00
2023-08-02T20:51:11.673Z,100.00
2023-08-02T20:53:18.047Z,100.00
2023-08-02T20:55:25.687Z,100.00
2023-08-02T20:57:32.615Z,100.00
2023-08-02T20:59:40.625Z,100.00
2023-08-02T21:01:47.061Z,100.00
2023-08-02T21:03:49.473Z,100.00
2023-08-02T21:05:54.647Z,100.00
2023-08-02T21:08:00.386Z,100.00
2023-08-02T21:10:13.407Z,100.00
2023-08-02T21:12:21.100Z,100.00
2023-08-02T21:14:28.696Z,100.00
2023-08-02T21:16:34.102Z,100.00
2023-08-02T21:18:41.968Z,100.00
2023-08-02T21:20:47.894Z,100.00
2023-08-02T21:22:52.864Z,100.00
2023-08-02T21:24:57.757Z,100.00
2023-08-02T21:27:05.563Z,100.00
2023-08-02T21:29:16.499Z,100.00
2023-08-02T21:31:28.681Z,100.00
2023-08-02T21:33:38.094Z,100.00
2023-08-02T21:35:57.410Z,100.00
2023-08-02T21:38:05.528Z,100.00
2023-08-02T21:40:18.729Z,100.00
2023-08-02T21:42:26.362Z,100.00
2023-08-02T21:44:34.040Z,100.00
2023-08-02T21:46:56.105Z,100.00
2023-08-02T21:49:01.253Z,100.00
2023-08-02T21:51:06.827Z,100.00
2023-08-02T21:53:13.523Z,100.00
2023-08-02T21:55:24.353Z,100.00
2023-08-02T21:57:40.048Z,100.00
2023-08-02T21:59:47.754Z,100.00
2023-08-02T22:02:05.980Z,100.00
2023-08-02T22:04:20.320Z,100.00
2023-08-02T22:06:27.247Z,100.00
2023-08-02T22:08:42.637Z,100.00
2023-08-02T22:10:51.613Z,100.00
2023-08-02T22:13:08.365Z,100.00
2023-08-02T22:15:33.793Z,100.00
2023-08-02T22:17:41.245Z,100.00
2023-08-02T22:19:49.671Z,100.00
2023-08-02T22:21:54.508Z,100.00
2023-08-02T22:23:59.345Z,100.00
2023-08-02T22:26:01.635Z,100.00
2023-08-02T22:28:07.868Z,100.00
2023-08-02T22:30:15.584Z,100.00
2023-08-02T22:32:20.571Z,100.00
2023-08-02T22:34:28.453Z,100.00
2023-08-02T22:36:33.329Z,100.00
2023-08-02T22:38:49.183Z,100.00
2023-08-02T22:40:54.682Z,100.00
2023-08-02T22:42:59.521Z,100.00
2023-08-02T22:45:02.668Z,100.00
2023-08-02T22:47:10.627Z,100.00
2023-08-02T22:50:31.222Z,100.00
2023-08-02T22:51:40.461Z,100.00
2023-08-02T22:53:45.257Z,100.00
2023-08-02T22:55:50.172Z,100.00
2023-08-02T22:57:55.007Z,100.00
2023-08-02T23:00:00.704Z,100.00
2023-08-02T23:02:06.275Z,100.00
2023-08-02T23:04:13.965Z,100.00
2023-08-02T23:06:22.840Z,100.00
2023-08-02T23:08:30.068Z,100.00
2023-08-02T23:10:37.819Z,100.00
2023-08-02T23:12:45.295Z,100.00
2023-08-02T23:14:55.893Z,100.00
2023-08-02T23:17:02.962Z,100.00
2023-08-02T23:19:18.794Z,100.00
2023-08-02T23:21:23.791Z,100.00
2023-08-02T23:23:33.363Z,100.00
2023-08-02T23:25:38.802Z,100.00
2023-08-02T23:27:43.962Z,100.00
2023-08-02T23:29:48.820Z,100.00
2023-08-02T23:31:53.803Z,100.00
2023-08-02T23:34:05.260Z,100.00
2023-08-02T23:36:12.893Z,100.00
2023-08-02T23:38:15.217Z,100.00
2023-08-02T23:40:20.065Z,100.00
2023-08-02T23:42:24.965Z,100.00
2023-08-02T23:44:29.882Z,100.00
2023-08-02T23:46:35.310Z,100.00
2023-08-02T23:48:40.114Z,100.00
2023-08-02T23:50:44.814Z,100.00
2023-08-02T23:52:52.291Z,100.00
2023-08-02T23:54:57.159Z,100.00
2023-08-02T23:57:02.193Z,100.00
2023-08-02T23:59:04.924Z,100.00
